Flight Track Log - Related Links

Times and Time Zones

All times are in EDT time to prevent confusion due to time zone crossing. See the PDT4456 flight status page for this flight to view local times or setup timezone preferences in your user account.

Time Position Orientation Groundspeed Altitude Reporting Facility
EDT Latitude Longitude Course Direction KTS MPH feet Rate Location/Type
Sun 06:16:47 PM 43.1100 -76.1206 196° South 106 122 900  Level Boston Center
Sun 06:17:54 PM 43.0847 -76.1306 196° South 163 188 2,400 1,263 Climbing Boston Center
Sun 06:19:00 PM 43.0486 -76.0828 136° Southeast 175 201 3,700 1,113 Climbing Boston Center
Sun 06:19:58 PM 43.0297 -76.0250 114° Southeast 178 205 4,700 1,017 Climbing Boston Center
Sun 06:20:58 PM 43.0108 -75.9586 111° Southeast 178 205 5,700 1,050 Climbing Boston Center
Sun 06:21:58 PM 42.9919 -75.8978 113° Southeast 178 205 6,800 1,100 Climbing Boston Center
Sun 06:22:58 PM 42.9686 -75.8397 119° Southeast 173 199 7,900 1,000 Climbing Boston Center
Sun 06:23:58 PM 42.9350 -75.7839 129° Southeast 179 206 8,800 1,050 Climbing Boston Center
Sun 06:24:58 PM 42.9008 -75.7394 136° Southeast 179 206 10,000 1,250 Climbing Boston Center
Sun 06:25:58 PM 42.8708 -75.6897 129° Southeast 173 199 11,300 1,100 Climbing Boston Center
Sun 06:26:58 PM 42.8389 -75.6369 130° Southeast 173 199 12,200 900 Climbing Boston Center
Sun 06:27:58 PM 42.8053 -75.5786 128° Southeast 178 205 13,100 900 Climbing Boston Center
Sun 06:28:58 PM 42.7733 -75.5233 128° Southeast 183 211 14,000 800 Climbing Boston Center
Sun 06:29:58 PM 42.7714 -75.4383 92° East 196 226 14,700 750 Climbing Boston Center
Sun 06:30:58 PM 42.7717 -75.3508 90° East 202 232 15,500 850 Climbing Boston Center
Sun 06:31:58 PM 42.7678 -75.2600 93° East 222 255 16,400 682 Climbing Boston Center
Sun 06:33:10 PM 42.7614 -75.1778 96° East 227 261 17,000 273 Climbing Boston Center
Sun 06:34:10 PM 42.7536 -75.0642 95° East 239 275 17,000  Level Boston Center
Sun 06:35:10 PM 42.7517 -74.9622 91° East 251 289 17,000  Level Boston Center
Sun 06:36:10 PM 42.7478 -74.8603 93° East 261 300 17,000  Level Boston Center
Sun 06:37:10 PM 42.7436 -74.7556 93° East 272 313 17,000  Level Boston Center
Sun 06:38:10 PM 42.7456 -74.6539 88° East 272 313 17,000  Level Boston Center
Sun 06:39:10 PM 42.7433 -74.5547 92° East 267 307 17,000  Level Boston Center
Sun 06:40:10 PM 42.7453 -74.4558 88° East 274 315 17,000  Level Boston Center
Sun 06:41:10 PM 42.7469 -74.3569 89° East 264 304 17,000  Level Boston Center
Sun 06:42:10 PM 42.7486 -74.2553 89° East 264 304 17,000  Level Boston Center
Sun 06:43:10 PM 42.7500 -74.1592 89° East 254 292 17,000  Level Boston Center
Sun 06:44:10 PM 42.7453 -74.0658 94° East 254 292 17,000  Level Boston Center
Sun 06:45:10 PM 42.7342 -73.9664 99° East 248 285 17,000  Level Boston Center
Sun 06:46:22 PM 42.7269 -73.8675 96° East 258 297 17,000  Level Boston Center
Sun 06:47:34 PM 42.7139 -73.7483 98° East 258 297 17,000  Level Boston Center
Sun 06:48:34 PM 42.7028 -73.6239 97° East 266 306 17,000  Level Boston Center
Sun 06:49:46 PM 42.6914 -73.5050 97° East 272 313 17,000  Level Boston Center
Sun 06:50:46 PM 42.6817 -73.4117 98° East 272 313 17,000  Level Boston Center
Sun 06:51:46 PM 42.6722 -73.3014 97° East 278 320 17,000  Level Boston Center
Sun 06:52:58 PM 42.6625 -73.2108 98° East 273 314 17,000  Level Boston Center
Sun 06:53:58 PM 42.6444 -73.0836 101° East 268 308 17,000  Level Boston Center
Sun 06:54:58 PM 42.6344 -72.9961 99° East 263 303 17,000  Level Boston Center
Sun 06:55:58 PM 42.6328 -72.9000 91° East 256 295 17,000  Level Boston Center
Sun 06:56:58 PM 42.6250 -72.8011 96° East 256 295 17,000  Level Boston Center
Sun 06:57:58 PM 42.6169 -72.7025 96° East 256 295 17,000 50 Level Boston Center
Sun 06:58:58 PM 42.6067 -72.6064 98° East 256 295 17,100 45 Climbing Boston Center
Sun 07:00:10 PM 42.5922 -72.5078 101° East 256 295 17,100 -182 Level Boston Center
Sun 07:01:10 PM 42.5839 -72.3894 95° East 256 295 16,700 -950 Descending Boston Center
Sun 07:02:10 PM 42.5711 -72.2878 100° East 256 295 15,200 -1,500 Descending Boston Center
Sun 07:03:10 PM 42.5586 -72.1836 99° East 276 318 13,700 -1,550 Descending Boston Center
Sun 07:04:10 PM 42.5497 -72.0653 96° East 282 325 12,100 -900 Descending Boston Center
Sun 07:05:10 PM 42.5392 -71.9753 99° East 277 319 11,900 -500 Descending Boston Center
Sun 07:06:10 PM 42.5261 -71.8711 100° East 268 308 11,100 -950 Descending Boston Center
Sun 07:07:10 PM 42.5172 -71.7642 96° East 274 315 10,000 -909 Descending Boston Center
Sun 07:08:22 PM 42.5083 -71.6628 97° East 274 315 9,100 -545 Descending Boston Center
Sun 07:08:49 PM 42.5000 -71.5833 98° East 278 320 9,100 -65 Level KA90
Sun 07:09:55 PM 42.4833 -71.4833 103° East 258 297 9,000 -496 Descending KA90
Sun 07:10:50 PM 42.4833 -71.4000 90° East 271 312 8,100 -1,000 Descending KA90
Sun 07:11:49 PM 42.4833 -71.2833 90° East 288 331 7,100 -1,008 Descending KA90
Sun 07:12:55 PM 42.5000 -71.1667 79° East 292 336 6,000 -1,000 Descending KA90
Sun 07:13:55 PM 42.5667 -71.1167 29° Northeast 276 318 5,000 -1,026 Descending KA90
Sun 07:14:52 PM 42.5833 -71.0167 77° East 276 318 4,000 -1,000 Descending KA90
Sun 07:15:55 PM 42.5667 -70.9333 105° East 222 255 3,000 -513 Descending KA90
Sun 07:16:49 PM 42.5167 -70.9167 166° South 178 205 3,000 -500 Level KA90
Sun 07:17:55 PM 42.4667 -70.9500 206° Southwest 167 192 2,000 -909 Descending KA90

Login

Don't have an account? Register now (free) for customized features, flight alerts, and more!